createdAt,value
2018-04-27T00:00:57.377Z,2.60
2018-04-27T00:01:57.529Z,2.30
2018-04-27T00:02:57.666Z,2.30
2018-04-27T00:03:57.797Z,2.30
2018-04-27T00:04:57.934Z,2.20
2018-04-27T00:05:58.078Z,2.70
2018-04-27T00:06:58.205Z,2.30
2018-04-27T00:07:58.356Z,2.50
2018-04-27T00:08:58.484Z,2.50
2018-04-27T00:09:58.625Z,2.40
2018-04-27T00:10:58.767Z,2.50
2018-04-27T00:11:58.907Z,2.90
2018-04-27T00:12:59.044Z,2.80
2018-04-27T00:13:59.181Z,2.80
2018-04-27T00:14:59.335Z,3.10
2018-04-27T00:15:59.462Z,3.00
2018-04-27T00:16:59.593Z,2.70
2018-04-27T00:17:59.725Z,2.80
2018-04-27T00:18:59.854Z,2.60
2018-04-27T00:20:00.040Z,3.00
2018-04-27T00:21:00.165Z,3.00
2018-04-27T00:22:00.317Z,2.60
2018-04-27T00:23:00.443Z,2.50
2018-04-27T00:24:00.581Z,2.70
2018-04-27T00:25:00.709Z,2.80
2018-04-27T00:26:00.863Z,2.60
2018-04-27T00:27:01.000Z,2.50
2018-04-27T00:28:01.136Z,2.50
2018-04-27T00:29:01.265Z,3.30
2018-04-27T00:30:01.473Z,3.70
2018-04-27T00:31:01.500Z,3.50
2018-04-27T00:32:01.641Z,3.40
2018-04-27T00:33:01.780Z,3.30
2018-04-27T00:34:01.962Z,3.70
2018-04-27T00:35:02.053Z,3.30
2018-04-27T00:36:02.184Z,2.80
2018-04-27T00:37:02.323Z,3.20
2018-04-27T00:38:02.457Z,3.10
2018-04-27T00:39:02.595Z,3.00
2018-04-27T00:40:02.728Z,3.50
2018-04-27T00:41:02.859Z,3.20
2018-04-27T00:42:03.012Z,3.20
2018-04-27T00:43:03.201Z,2.90
2018-04-27T00:44:03.274Z,2.80
2018-04-27T00:45:03.408Z,3.10
2018-04-27T00:46:03.549Z,3.10
2018-04-27T00:47:03.680Z,3.20
2018-04-27T00:48:03.811Z,3.10
2018-04-27T00:49:03.946Z,2.80
2018-04-27T00:50:04.111Z,2.90
2018-04-27T00:51:04.273Z,2.90
2018-04-27T00:52:04.388Z,3.00
2018-04-27T00:53:04.528Z,3.10
2018-04-27T00:54:05.223Z,3.10
2018-04-27T00:55:04.800Z,2.70
2018-04-27T00:56:04.930Z,2.70
2018-04-27T00:57:05.066Z,2.80
2018-04-27T00:58:05.234Z,2.60
2018-04-27T00:59:05.346Z,2.90
2018-04-27T01:00:05.486Z,2.90
2018-04-27T01:01:05.659Z,2.60
2018-04-27T01:02:05.770Z,2.90
2018-04-27T01:03:05.908Z,2.70
2018-04-27T01:04:06.089Z,2.90
2018-04-27T01:05:06.218Z,2.60
2018-04-27T01:06:06.361Z,2.50
2018-04-27T01:07:06.496Z,2.60
2018-04-27T01:08:06.645Z,2.80
2018-04-27T01:09:06.778Z,2.90
2018-04-27T01:10:06.913Z,3.20
2018-04-27T01:11:07.053Z,2.70
2018-04-27T01:12:07.203Z,3.00
2018-04-27T01:13:07.331Z,2.60
2018-04-27T01:14:07.477Z,2.80
2018-04-27T01:15:07.600Z,2.80
2018-04-27T01:16:07.733Z,2.60
2018-04-27T01:17:07.866Z,2.70
2018-04-27T01:18:07.998Z,2.70
2018-04-27T01:19:08.133Z,2.80
2018-04-27T01:20:08.255Z,2.80
2018-04-27T01:21:08.409Z,2.60
2018-04-27T01:22:08.541Z,2.70
2018-04-27T01:23:08.677Z,3.30
2018-04-27T01:24:08.816Z,3.00
2018-04-27T01:25:08.951Z,3.00
2018-04-27T01:26:09.102Z,2.70
2018-04-27T01:27:09.234Z,2.60
2018-04-27T01:28:09.370Z,2.80
2018-04-27T01:29:09.504Z,2.70
2018-04-27T01:30:09.637Z,2.50
2018-04-27T01:31:09.772Z,2.50
2018-04-27T01:32:09.908Z,2.90
2018-04-27T01:33:10.043Z,2.80
2018-04-27T01:34:10.167Z,2.70
2018-04-27T01:35:10.315Z,2.90
2018-04-27T01:36:10.439Z,3.10
2018-04-27T01:37:10.582Z,2.80
2018-04-27T01:38:10.712Z,2.70
2018-04-27T01:39:10.845Z,2.60
2018-04-27T01:40:10.980Z,2.50
2018-04-27T01:41:11.109Z,3.10
2018-04-27T01:42:11.247Z,2.90
2018-04-27T01:43:11.378Z,2.80
2018-04-27T01:44:11.509Z,2.90
2018-04-27T01:45:11.646Z,2.90
2018-04-27T01:46:11.786Z,2.60
2018-04-27T01:47:11.924Z,3.00
2018-04-27T01:48:12.072Z,2.80
2018-04-27T01:49:12.225Z,2.70
2018-04-27T01:50:12.361Z,2.90
2018-04-27T01:51:12.532Z,3.10
2018-04-27T01:52:12.650Z,2.80
2018-04-27T01:53:12.787Z,2.80
2018-04-27T01:54:12.923Z,3.00
2018-04-27T01:55:13.078Z,2.80
2018-04-27T01:56:13.276Z,2.90
2018-04-27T01:57:13.372Z,3.10
2018-04-27T01:58:13.470Z,2.90
2018-04-27T01:59:13.628Z,2.70
2018-04-27T02:00:13.756Z,3.10
2018-04-27T02:01:13.891Z,3.00
2018-04-27T02:02:14.030Z,2.80
2018-04-27T02:03:14.184Z,3.00
2018-04-27T02:04:14.316Z,2.70
2018-04-27T02:05:14.442Z,2.60
2018-04-27T02:06:14.581Z,2.60
2018-04-27T02:07:14.711Z,3.00
2018-04-27T02:08:14.850Z,3.10
2018-04-27T02:09:14.986Z,2.80
2018-04-27T02:10:15.127Z,2.70
2018-04-27T02:11:15.260Z,2.60
2018-04-27T02:12:15.402Z,3.00
2018-04-27T02:13:15.543Z,3.10
2018-04-27T02:14:15.674Z,2.80
2018-04-27T02:15:15.817Z,2.40
2018-04-27T02:16:15.960Z,2.80
2018-04-27T02:17:16.090Z,2.90
2018-04-27T02:18:16.225Z,2.80
2018-04-27T02:19:16.356Z,2.40
2018-04-27T02:20:16.505Z,2.90
2018-04-27T02:21:16.635Z,2.60
2018-04-27T02:22:16.772Z,2.10
2018-04-27T02:23:16.941Z,2.60
2018-04-27T02:24:17.053Z,2.60
2018-04-27T02:25:17.191Z,2.50
2018-04-27T02:26:17.328Z,2.60
2018-04-27T02:27:17.463Z,2.60
2018-04-27T02:28:17.599Z,2.70
2018-04-27T02:29:17.726Z,2.70
2018-04-27T02:30:17.865Z,2.60
2018-04-27T02:31:17.994Z,2.90
2018-04-27T02:32:18.134Z,2.50
2018-04-27T02:33:18.292Z,2.50
2018-04-27T02:34:18.457Z,2.90
2018-04-27T02:35:18.590Z,2.50
2018-04-27T02:36:19.298Z,2.50
2018-04-27T02:37:18.858Z,2.90
2018-04-27T02:38:18.994Z,2.80
2018-04-27T02:39:19.130Z,2.80
2018-04-27T02:40:19.264Z,2.60
2018-04-27T02:41:19.407Z,3.00
2018-04-27T02:42:19.544Z,2.50
2018-04-27T02:43:19.680Z,2.40
2018-04-27T02:44:19.816Z,2.70
2018-04-27T02:45:19.948Z,2.70
2018-04-27T02:46:20.081Z,2.90
2018-04-27T02:47:20.212Z,2.40
2018-04-27T02:48:20.343Z,2.80
2018-04-27T02:49:20.480Z,2.50
2018-04-27T02:50:20.615Z,2.60
2018-04-27T02:51:20.751Z,2.40
2018-04-27T02:52:20.883Z,2.70
2018-04-27T02:53:21.024Z,2.50
2018-04-27T02:54:21.163Z,2.30
2018-04-27T02:55:21.288Z,3.00
2018-04-27T02:56:21.473Z,2.40
2018-04-27T02:57:21.578Z,2.50
2018-04-27T02:58:21.716Z,2.60
2018-04-27T02:59:21.845Z,2.70
2018-04-27T03:00:21.986Z,2.90
2018-04-27T03:01:22.122Z,2.90
2018-04-27T03:02:22.261Z,2.50
2018-04-27T03:03:22.395Z,2.90
2018-04-27T03:04:22.527Z,3.10
2018-04-27T03:05:22.659Z,2.60
2018-04-27T03:06:22.793Z,2.90
2018-04-27T03:07:22.927Z,3.00
2018-04-27T03:08:23.061Z,3.00
2018-04-27T03:09:23.195Z,3.20
2018-04-27T03:10:23.328Z,2.80
2018-04-27T03:11:23.463Z,2.70
2018-04-27T03:12:23.627Z,2.90
2018-04-27T03:13:23.745Z,2.70
2018-04-27T03:14:23.876Z,2.70
2018-04-27T03:15:24.012Z,2.80
2018-04-27T03:16:24.167Z,3.10
2018-04-27T03:17:24.289Z,2.80
2018-04-27T03:18:24.421Z,2.90
2018-04-27T03:19:24.555Z,3.10
2018-04-27T03:20:24.717Z,2.90
2018-04-27T03:21:24.848Z,2.90
2018-04-27T03:22:24.979Z,3.00
2018-04-27T03:23:25.109Z,2.50
2018-04-27T03:24:25.287Z,2.50
2018-04-27T03:25:25.386Z,2.80
2018-04-27T03:26:25.517Z,2.80
2018-04-27T03:27:25.662Z,2.50
2018-04-27T03:28:25.792Z,2.90
2018-04-27T03:29:25.931Z,2.80
2018-04-27T03:30:26.067Z,4.80
2018-04-27T03:31:26.732Z,3.30
2018-04-27T03:32:26.340Z,3.70
2018-04-27T03:33:26.463Z,2.70
2018-04-27T03:34:26.646Z,3.00
2018-04-27T03:35:26.728Z,5.70
2018-04-27T03:36:26.860Z,4.30
2018-04-27T03:37:26.989Z,4.00
2018-04-27T03:38:27.131Z,3.70
2018-04-27T03:39:27.261Z,2.80
2018-04-27T03:40:27.398Z,2.90
2018-04-27T03:41:27.526Z,3.30
2018-04-27T03:42:27.659Z,3.00
2018-04-27T03:43:27.798Z,2.70
2018-04-27T03:44:27.925Z,2.70
2018-04-27T03:45:28.131Z,2.80
2018-04-27T03:46:28.190Z,2.60
2018-04-27T03:47:28.328Z,2.90
2018-04-27T03:48:28.476Z,3.10
2018-04-27T03:49:28.610Z,2.90
2018-04-27T03:50:28.739Z,3.30
2018-04-27T03:51:28.876Z,2.70
2018-04-27T03:52:29.011Z,2.70
2018-04-27T03:53:29.139Z,3.00
2018-04-27T03:54:29.278Z,2.90
2018-04-27T03:55:29.408Z,3.40
2018-04-27T03:56:29.539Z,3.30
2018-04-27T03:57:29.677Z,3.00
2018-04-27T03:58:29.827Z,3.10
2018-04-27T03:59:29.957Z,3.50
2018-04-27T04:00:30.090Z,2.90
2018-04-27T04:01:30.227Z,2.90
2018-04-27T04:02:30.381Z,3.30
2018-04-27T04:03:30.518Z,3.20
2018-04-27T04:04:30.645Z,3.40
2018-04-27T04:05:30.784Z,3.00
2018-04-27T04:06:30.905Z,3.20
2018-04-27T04:07:31.039Z,2.90
2018-04-27T04:08:31.173Z,3.20
2018-04-27T04:09:31.302Z,3.30
2018-04-27T04:10:31.459Z,3.20
2018-04-27T04:11:31.590Z,3.20
2018-04-27T04:12:31.722Z,2.80
2018-04-27T04:13:31.855Z,2.80
2018-04-27T04:14:31.978Z,2.90
2018-04-27T04:15:32.107Z,2.70
2018-04-27T04:16:32.250Z,2.90
2018-04-27T04:17:32.389Z,2.60
2018-04-27T04:18:32.534Z,2.50
2018-04-27T04:19:32.669Z,2.90
2018-04-27T04:20:32.813Z,2.80
2018-04-27T04:21:32.941Z,2.80
2018-04-27T04:22:33.099Z,2.90
2018-04-27T04:23:33.228Z,3.10
2018-04-27T04:24:33.359Z,2.90
2018-04-27T04:25:33.497Z,3.20
2018-04-27T04:26:33.654Z,3.00
2018-04-27T04:27:33.778Z,2.80
2018-04-27T04:28:33.909Z,2.90
2018-04-27T04:29:34.039Z,3.10
2018-04-27T04:30:34.193Z,3.10
2018-04-27T04:31:34.336Z,2.70
2018-04-27T04:32:34.464Z,2.70
2018-04-27T04:33:34.599Z,2.60
2018-04-27T04:34:34.729Z,2.80
2018-04-27T04:35:34.865Z,3.00
2018-04-27T04:36:34.996Z,3.00
2018-04-27T04:37:35.133Z,3.60
2018-04-27T04:38:35.268Z,3.30
2018-04-27T04:39:35.404Z,3.20
2018-04-27T04:40:35.541Z,2.80
2018-04-27T04:41:35.683Z,3.00
2018-04-27T04:42:35.820Z,3.10
2018-04-27T04:43:35.945Z,3.00
2018-04-27T04:44:36.079Z,3.10
2018-04-27T04:45:36.217Z,3.10
2018-04-27T04:46:36.351Z,3.10
2018-04-27T04:47:36.477Z,2.90
2018-04-27T04:48:36.612Z,3.00
2018-04-27T04:49:36.752Z,3.00
2018-04-27T04:50:36.889Z,3.00
2018-04-27T04:51:37.020Z,2.70
2018-04-27T04:52:37.234Z,2.60
2018-04-27T04:53:37.310Z,2.50
2018-04-27T04:54:37.426Z,3.00
2018-04-27T04:55:37.552Z,2.80
2018-04-27T04:56:37.688Z,3.00
2018-04-27T04:57:37.822Z,2.80
2018-04-27T04:58:37.957Z,2.70
2018-04-27T04:59:38.091Z,2.90
2018-04-27T05:00:38.241Z,2.70
2018-04-27T05:01:38.373Z,2.90
2018-04-27T05:02:38.515Z,2.80
2018-04-27T05:03:38.638Z,2.80
2018-04-27T05:04:38.778Z,2.70
2018-04-27T05:05:38.892Z,2.40
2018-04-27T05:06:39.031Z,3.10
2018-04-27T05:07:39.165Z,2.90
2018-04-27T05:08:39.314Z,2.90
2018-04-27T05:09:39.447Z,2.80
2018-04-27T05:10:39.648Z,2.90
2018-04-27T05:11:39.740Z,2.90
2018-04-27T05:12:39.872Z,3.10
2018-04-27T05:13:40.009Z,3.50
2018-04-27T05:14:40.144Z,3.60
2018-04-27T05:15:40.306Z,4.00
2018-04-27T05:16:40.435Z,4.50
2018-04-27T05:17:40.573Z,3.90
2018-04-27T05:18:40.719Z,4.20
2018-04-27T05:19:40.852Z,3.70
2018-04-27T05:20:40.996Z,3.60
2018-04-27T05:21:41.123Z,3.90
2018-04-27T05:22:41.275Z,4.10
2018-04-27T05:23:41.404Z,3.70
2018-04-27T05:24:41.533Z,3.40
2018-04-27T05:25:41.678Z,3.50
2018-04-27T05:26:41.825Z,3.70
2018-04-27T05:27:41.957Z,3.70
2018-04-27T05:28:42.089Z,3.60
2018-04-27T05:29:42.298Z,3.50
2018-04-27T05:30:42.364Z,3.70
2018-04-27T05:31:42.501Z,3.60
2018-04-27T05:32:42.633Z,4.20
2018-04-27T05:33:42.771Z,3.70
2018-04-27T05:34:42.903Z,3.40
2018-04-27T05:35:43.035Z,3.40
2018-04-27T05:36:43.165Z,3.60
2018-04-27T05:37:43.299Z,3.50
2018-04-27T05:38:43.433Z,3.40
2018-04-27T05:39:43.568Z,3.70
2018-04-27T05:40:43.700Z,3.20
2018-04-27T05:41:43.835Z,3.50
2018-04-27T05:42:43.971Z,3.20
2018-04-27T05:43:44.107Z,3.50
2018-04-27T05:44:44.236Z,3.70
2018-04-27T05:45:44.375Z,3.50
2018-04-27T05:46:44.498Z,3.60
2018-04-27T05:47:44.648Z,3.90
2018-04-27T05:48:44.775Z,5.20
2018-04-27T05:49:44.917Z,6.20
2018-04-27T05:50:45.055Z,4.00
2018-04-27T05:51:45.196Z,4.00
2018-04-27T05:52:45.330Z,4.20
2018-04-27T05:53:45.466Z,3.90
2018-04-27T05:54:45.593Z,4.10
2018-04-27T05:55:45.725Z,4.10
2018-04-27T05:56:45.863Z,3.90
2018-04-27T05:57:46.001Z,4.10
2018-04-27T05:58:46.131Z,4.20
2018-04-27T05:59:46.268Z,4.20
2018-04-27T06:00:46.397Z,4.00
2018-04-27T06:01:46.526Z,4.20
2018-04-27T06:02:46.669Z,4.20
2018-04-27T06:03:46.857Z,4.40
2018-04-27T06:04:46.989Z,4.20
2018-04-27T06:05:47.137Z,4.70
2018-04-27T06:06:47.267Z,4.70
2018-04-27T06:07:47.415Z,4.40
2018-04-27T06:08:47.539Z,4.80
2018-04-27T06:09:47.678Z,4.20
2018-04-27T06:10:47.812Z,4.40
2018-04-27T06:11:47.965Z,4.80
2018-04-27T06:12:48.079Z,4.30
2018-04-27T06:13:48.214Z,5.10
2018-04-27T06:14:48.353Z,4.50
2018-04-27T06:15:48.527Z,20.80
2018-04-27T06:16:48.644Z,25.10
2018-04-27T06:17:48.773Z,29.00
2018-04-27T06:18:48.915Z,29.40
2018-04-27T06:19:49.164Z,8.00
2018-04-27T06:20:49.206Z,4.50
2018-04-27T06:21:49.338Z,4.20
2018-04-27T06:22:49.475Z,4.00
2018-04-27T06:23:49.613Z,4.40
2018-04-27T06:24:49.749Z,4.40
2018-04-27T06:25:49.893Z,4.00
2018-04-27T06:26:50.026Z,4.10
2018-04-27T06:27:50.180Z,4.50
2018-04-27T06:28:51.264Z,4.00
2018-04-27T06:29:50.426Z,4.10
2018-04-27T06:30:50.591Z,4.20
2018-04-27T06:31:50.755Z,4.00
2018-04-27T06:32:50.839Z,4.20
2018-04-27T06:33:50.979Z,4.80
2018-04-27T06:34:51.136Z,5.00
2018-04-27T06:35:51.265Z,4.60
2018-04-27T06:36:51.396Z,4.00
2018-04-27T06:37:51.559Z,4.60
2018-04-27T06:38:51.694Z,3.90
2018-04-27T06:39:51.828Z,4.50
2018-04-27T06:40:52.016Z,4.30
2018-04-27T06:41:52.095Z,4.10
2018-04-27T06:42:52.229Z,4.50
2018-04-27T06:43:52.369Z,4.20
2018-04-27T06:44:52.516Z,4.30
2018-04-27T06:45:52.649Z,4.20
2018-04-27T06:46:52.823Z,4.10
2018-04-27T06:47:52.924Z,4.10
2018-04-27T06:48:53.047Z,4.90
2018-04-27T06:49:53.180Z,4.10
2018-04-27T06:50:53.315Z,4.30
2018-04-27T06:51:53.453Z,4.60
2018-04-27T06:52:53.587Z,4.50
2018-04-27T06:53:53.728Z,4.10
2018-04-27T06:54:53.853Z,4.10
2018-04-27T06:55:53.988Z,3.90
2018-04-27T06:56:54.123Z,4.40
2018-04-27T06:57:54.768Z,3.80
2018-04-27T06:58:54.392Z,3.70
2018-04-27T06:59:54.538Z,4.30
2018-04-27T07:00:54.676Z,4.10
2018-04-27T07:01:54.838Z,4.20
2018-04-27T07:02:54.971Z,4.20
2018-04-27T07:03:55.112Z,4.50
2018-04-27T07:04:55.243Z,4.20
2018-04-27T07:05:55.375Z,4.00
2018-04-27T07:06:55.621Z,3.60
2018-04-27T07:07:55.651Z,3.90
2018-04-27T07:08:55.785Z,4.00
2018-04-27T07:09:55.918Z,3.80
2018-04-27T07:10:56.064Z,4.20
2018-04-27T07:11:56.200Z,3.70
2018-04-27T07:12:56.339Z,3.50
2018-04-27T07:13:56.472Z,3.70
2018-04-27T07:14:56.607Z,3.40
2018-04-27T07:15:56.764Z,4.20
2018-04-27T07:16:56.919Z,3.50
2018-04-27T07:17:57.028Z,3.20
2018-04-27T07:18:57.168Z,3.20
2018-04-27T07:19:57.306Z,3.50
2018-04-27T07:20:57.443Z,3.20
2018-04-27T07:21:57.572Z,3.40
2018-04-27T07:22:57.709Z,3.60
2018-04-27T07:23:57.848Z,3.80
2018-04-27T07:24:57.977Z,3.40
2018-04-27T07:25:58.159Z,3.30
2018-04-27T07:26:58.250Z,3.90
2018-04-27T07:27:58.390Z,3.70
2018-04-27T07:28:58.532Z,3.40
2018-04-27T07:29:58.680Z,3.70
2018-04-27T07:30:58.816Z,3.50
2018-04-27T07:31:59.024Z,3.70
2018-04-27T07:32:59.141Z,3.30
2018-04-27T07:33:59.268Z,3.70
2018-04-27T07:34:59.409Z,3.70
2018-04-27T07:35:59.544Z,3.40
2018-04-27T07:36:59.680Z,3.60
2018-04-27T07:37:59.853Z,3.90
2018-04-27T07:39:00.011Z,3.70
2018-04-27T07:40:00.143Z,3.80
2018-04-27T07:41:00.361Z,3.80
2018-04-27T07:42:00.498Z,3.40
2018-04-27T07:43:00.512Z,3.80
2018-04-27T07:44:00.648Z,3.40
2018-04-27T07:45:00.804Z,3.90
2018-04-27T07:46:00.934Z,3.70
2018-04-27T07:47:01.068Z,3.90
2018-04-27T07:48:01.206Z,3.80
2018-04-27T07:49:01.360Z,3.60
2018-04-27T07:50:01.484Z,3.20
2018-04-27T07:51:01.620Z,3.50
2018-04-27T07:52:01.760Z,3.40
2018-04-27T07:53:01.929Z,3.80
2018-04-27T07:54:02.049Z,3.70
2018-04-27T07:55:02.187Z,3.40
2018-04-27T07:56:02.319Z,3.70
2018-04-27T07:57:02.499Z,3.50
2018-04-27T07:58:02.604Z,3.50
2018-04-27T07:59:02.749Z,3.60
2018-04-27T08:00:02.885Z,3.30
2018-04-27T08:01:03.021Z,3.00
2018-04-27T08:02:03.161Z,3.50
2018-04-27T08:03:03.294Z,3.40
2018-04-27T08:04:03.432Z,3.30
2018-04-27T08:05:03.572Z,3.50
2018-04-27T08:06:03.706Z,3.30
2018-04-27T08:07:03.839Z,3.20
2018-04-27T08:08:03.981Z,3.40
2018-04-27T08:09:04.113Z,3.00
2018-04-27T08:10:04.259Z,3.40
2018-04-27T08:11:04.405Z,3.60
2018-04-27T08:12:04.546Z,3.30
2018-04-27T08:13:04.689Z,3.20
2018-04-27T08:14:05.779Z,4.20
2018-04-27T08:15:04.948Z,3.50
2018-04-27T08:16:05.085Z,3.60
2018-04-27T08:17:05.220Z,3.80
2018-04-27T08:18:05.362Z,3.30
2018-04-27T08:19:05.499Z,3.40
2018-04-27T08:20:05.637Z,3.60
2018-04-27T08:21:05.785Z,3.40
2018-04-27T08:22:05.923Z,3.00
2018-04-27T08:23:06.055Z,3.30
2018-04-27T08:24:06.195Z,4.50
2018-04-27T08:25:06.323Z,6.20
2018-04-27T08:26:06.464Z,4.00
2018-04-27T08:27:06.609Z,3.70
2018-04-27T08:28:06.755Z,3.70
2018-04-27T08:29:06.893Z,3.80
2018-04-27T08:30:07.025Z,3.10
2018-04-27T08:31:07.163Z,3.30
2018-04-27T08:32:07.305Z,3.30
2018-04-27T08:33:07.447Z,3.80
2018-04-27T08:34:07.583Z,3.90
2018-04-27T08:35:07.727Z,3.20
2018-04-27T08:36:07.898Z,3.20
2018-04-27T08:37:08.015Z,3.50
2018-04-27T08:38:08.152Z,3.20
2018-04-27T08:39:08.300Z,3.00
2018-04-27T08:40:08.527Z,3.00
2018-04-27T08:41:08.575Z,3.20
2018-04-27T08:42:08.709Z,2.80
2018-04-27T08:43:08.856Z,3.10
2018-04-27T08:44:09.021Z,3.20
2018-04-27T08:45:09.155Z,3.90
2018-04-27T08:46:09.291Z,3.10
2018-04-27T08:47:09.435Z,3.10
2018-04-27T08:48:09.578Z,3.00
2018-04-27T08:49:09.704Z,3.30
2018-04-27T08:50:09.861Z,3.00
2018-04-27T08:51:10.018Z,3.10
2018-04-27T08:52:10.150Z,3.00
2018-04-27T08:53:10.282Z,2.90
2018-04-27T08:54:10.428Z,3.00
2018-04-27T08:55:10.767Z,3.10
2018-04-27T08:56:10.721Z,3.20
2018-04-27T08:57:10.856Z,2.90
2018-04-27T08:58:11.016Z,3.00
2018-04-27T08:59:11.154Z,3.20
2018-04-27T09:00:11.295Z,3.10
2018-04-27T09:01:11.428Z,3.10
2018-04-27T09:02:11.581Z,3.10
2018-04-27T09:03:11.714Z,2.80
2018-04-27T09:04:11.857Z,2.80
2018-04-27T09:05:11.996Z,2.70
2018-04-27T09:06:12.129Z,2.60
2018-04-27T09:07:12.806Z,3.10
2018-04-27T09:09:44.964Z,2.80
2018-04-27T09:10:45.099Z,3.10
2018-04-27T09:11:45.245Z,2.80
2018-04-27T09:12:45.377Z,2.60
2018-04-27T09:13:45.518Z,2.70
2018-04-27T09:14:45.657Z,2.80
2018-04-27T09:15:45.797Z,3.00
2018-04-27T09:16:45.936Z,5.10
2018-04-27T09:17:46.074Z,3.50
2018-04-27T09:18:46.213Z,2.70
2018-04-27T09:19:46.348Z,2.80
2018-04-27T09:20:46.487Z,2.60
2018-04-27T09:21:46.625Z,2.40
2018-04-27T09:22:46.768Z,2.20
2018-04-27T09:23:46.899Z,2.00
2018-04-27T09:24:47.036Z,2.30
2018-04-27T09:25:47.179Z,2.10
2018-04-27T09:26:47.328Z,2.30
2018-04-27T09:27:47.464Z,2.40
2018-04-27T09:28:47.607Z,2.60
2018-04-27T09:29:47.739Z,2.10
2018-04-27T09:30:47.881Z,2.50
2018-04-27T09:31:48.035Z,2.20
2018-04-27T09:32:48.162Z,2.20
2018-04-27T09:33:48.304Z,2.50
2018-04-27T09:34:48.521Z,2.30
2018-04-27T09:35:48.533Z,2.50
2018-04-27T09:36:48.673Z,2.30
2018-04-27T09:37:48.814Z,2.40
2018-04-27T09:38:48.952Z,2.50
2018-04-27T09:39:49.092Z,2.30
2018-04-27T09:40:49.233Z,2.30
2018-04-27T09:41:49.371Z,2.30
2018-04-27T09:42:49.508Z,2.70
2018-04-27T09:43:49.687Z,2.80
2018-04-27T09:44:49.828Z,2.80
2018-04-27T09:45:49.959Z,2.40
2018-04-27T09:46:50.113Z,2.70
2018-04-27T09:47:50.266Z,2.30
2018-04-27T09:48:50.385Z,2.10
2018-04-27T09:49:50.527Z,2.30
2018-04-27T09:50:50.826Z,2.30
2018-04-27T09:51:50.825Z,2.50
2018-04-27T09:52:50.961Z,2.30
2018-04-27T09:53:51.098Z,2.30
2018-04-27T09:54:51.267Z,2.50
2018-04-27T09:55:51.415Z,2.40
2018-04-27T09:56:51.553Z,2.60
2018-04-27T09:57:51.690Z,1.90
2018-04-27T09:58:51.847Z,2.30
2018-04-27T09:59:51.993Z,2.20
2018-04-27T10:00:52.135Z,2.20
2018-04-27T10:01:52.271Z,2.10
2018-04-27T10:02:52.403Z,2.20
2018-04-27T10:03:52.541Z,2.20
2018-04-27T10:04:52.674Z,2.00
2018-04-27T10:05:52.817Z,2.50
2018-04-27T10:06:53.253Z,2.30
2018-04-27T10:07:53.271Z,2.60
2018-04-27T10:08:53.291Z,2.50
2018-04-27T10:09:53.431Z,2.10
2018-04-27T10:10:53.585Z,2.60
2018-04-27T10:11:53.719Z,2.40
2018-04-27T10:12:53.859Z,2.20
2018-04-27T10:13:53.998Z,2.60
2018-04-27T10:14:54.148Z,2.30
2018-04-27T10:15:54.283Z,2.60
2018-04-27T10:16:54.428Z,2.20
2018-04-27T10:17:54.564Z,2.40
2018-04-27T10:18:54.726Z,2.20
2018-04-27T10:19:54.861Z,2.30
2018-04-27T10:20:54.995Z,2.40
2018-04-27T10:21:55.137Z,2.30
2018-04-27T10:22:55.277Z,2.30
2018-04-27T10:23:55.415Z,2.30
2018-04-27T10:24:55.555Z,2.40
2018-04-27T10:25:55.698Z,2.30
2018-04-27T10:26:55.835Z,2.10
2018-04-27T10:27:55.979Z,2.10
2018-04-27T10:28:56.124Z,2.00
2018-04-27T10:29:56.261Z,2.20
2018-04-27T10:30:56.485Z,2.30
2018-04-27T10:31:56.556Z,2.10
2018-04-27T10:32:56.704Z,2.00
2018-04-27T10:33:56.866Z,2.10
2018-04-27T10:34:57.008Z,2.60
2018-04-27T10:35:57.138Z,1.90
2018-04-27T10:36:57.275Z,2.40
2018-04-27T10:37:57.416Z,2.00
2018-04-27T10:38:57.557Z,2.20
2018-04-27T10:39:57.694Z,2.40
2018-04-27T10:40:57.834Z,2.20
2018-04-27T10:41:57.972Z,2.30
2018-04-27T10:42:58.141Z,2.00
2018-04-27T10:43:58.254Z,2.20
2018-04-27T10:44:58.394Z,2.10
2018-04-27T10:45:58.535Z,2.30
2018-04-27T10:46:58.681Z,2.20
2018-04-27T10:47:58.820Z,2.20
2018-04-27T10:48:58.970Z,2.00
2018-04-27T10:49:59.113Z,2.30
2018-04-27T10:50:59.245Z,1.90
2018-04-27T10:51:59.387Z,2.00
2018-04-27T10:52:59.526Z,2.00
2018-04-27T10:53:59.695Z,2.10
2018-04-27T10:54:59.811Z,2.00
2018-04-27T10:55:59.967Z,2.20
2018-04-27T10:57:00.104Z,2.30
2018-04-27T10:58:00.239Z,2.10
2018-04-27T10:59:00.385Z,2.00
2018-04-27T11:00:00.530Z,2.10
2018-04-27T11:01:00.711Z,2.40
2018-04-27T11:02:00.820Z,2.60
2018-04-27T11:03:00.956Z,2.30
2018-04-27T11:04:01.093Z,2.10
2018-04-27T11:05:01.263Z,1.80
2018-04-27T11:06:01.400Z,2.30
2018-04-27T11:07:01.534Z,2.10
2018-04-27T11:08:01.696Z,2.50
2018-04-27T11:09:01.827Z,2.00
2018-04-27T11:10:01.969Z,2.50
2018-04-27T11:11:02.161Z,2.10
2018-04-27T11:12:02.250Z,2.40
2018-04-27T11:13:02.396Z,2.10
2018-04-27T11:14:02.537Z,2.00
2018-04-27T11:15:02.675Z,1.80
2018-04-27T11:16:02.824Z,1.70
2018-04-27T11:17:02.971Z,1.90
2018-04-27T11:18:03.105Z,2.30
2018-04-27T11:19:03.240Z,2.40
2018-04-27T11:20:03.427Z,2.10
2018-04-27T11:21:03.560Z,2.00
2018-04-27T11:22:03.711Z,2.10
2018-04-27T11:23:03.874Z,1.80
2018-04-27T11:24:04.012Z,1.70
2018-04-27T11:25:04.160Z,2.30
2018-04-27T11:26:04.364Z,2.00
2018-04-27T11:27:04.470Z,2.20
2018-04-27T11:28:04.611Z,1.90
2018-04-27T11:29:04.755Z,1.90
2018-04-27T11:30:04.890Z,2.00
2018-04-27T11:31:05.029Z,1.80
2018-04-27T11:32:05.201Z,1.80
2018-04-27T11:33:05.341Z,1.90
2018-04-27T11:34:05.490Z,1.90
2018-04-27T11:35:05.633Z,1.90
2018-04-27T11:36:05.775Z,1.80
2018-04-27T11:37:05.913Z,1.90
2018-04-27T11:38:06.050Z,2.00
2018-04-27T11:39:06.196Z,1.90
2018-04-27T11:40:06.343Z,2.00
2018-04-27T11:41:06.482Z,1.70
2018-04-27T11:42:06.624Z,1.90
2018-04-27T11:43:06.765Z,1.90
2018-04-27T11:44:06.912Z,1.70
2018-04-27T11:45:07.050Z,6.20
2018-04-27T11:46:07.195Z,4.10
2018-04-27T11:47:07.332Z,3.50
2018-04-27T11:48:07.467Z,1.90
2018-04-27T11:49:07.608Z,1.90
2018-04-27T11:50:07.750Z,1.70
2018-04-27T11:51:07.888Z,1.70
2018-04-27T11:52:08.031Z,1.90
2018-04-27T11:53:08.172Z,2.00
2018-04-27T11:54:08.337Z,1.80
2018-04-27T11:55:08.472Z,2.10
2018-04-27T11:56:08.632Z,1.80
2018-04-27T11:57:08.777Z,1.80
2018-04-27T11:58:08.914Z,1.80
2018-04-27T11:59:09.063Z,1.80
2018-04-27T12:00:09.224Z,2.00
2018-04-27T12:01:09.358Z,1.80
2018-04-27T12:02:09.497Z,1.80
2018-04-27T12:03:09.651Z,1.80
2018-04-27T12:04:09.791Z,1.70
2018-04-27T12:05:09.928Z,1.80
2018-04-27T12:06:10.083Z,1.90
2018-04-27T12:07:10.342Z,2.00
2018-04-27T12:08:10.362Z,1.90
2018-04-27T12:09:10.555Z,2.10
2018-04-27T12:10:10.691Z,1.70
2018-04-27T12:11:10.901Z,1.90
2018-04-27T12:12:10.997Z,2.00
2018-04-27T12:13:11.145Z,2.00
2018-04-27T12:14:11.294Z,1.70
2018-04-27T12:15:11.432Z,2.10
2018-04-27T12:16:11.575Z,1.80
2018-04-27T12:17:11.724Z,1.50
2018-04-27T12:18:11.878Z,2.00
2018-04-27T12:19:12.018Z,1.90
2018-04-27T12:20:12.164Z,2.00
2018-04-27T12:21:12.324Z,1.80
2018-04-27T12:22:12.467Z,3.40
2018-04-27T12:23:12.605Z,2.40
2018-04-27T12:24:12.798Z,1.90
2018-04-27T12:25:12.905Z,1.70
2018-04-27T12:26:13.054Z,1.90
2018-04-27T12:27:13.201Z,1.90
2018-04-27T12:28:13.347Z,2.10
2018-04-27T12:29:13.487Z,2.10
2018-04-27T12:30:13.627Z,2.10
2018-04-27T12:31:13.822Z,1.80
2018-04-27T12:32:13.923Z,1.90
2018-04-27T12:33:14.067Z,2.10
2018-04-27T12:34:14.211Z,2.00
2018-04-27T12:35:14.357Z,2.20
2018-04-27T12:36:14.550Z,2.00
2018-04-27T12:37:14.575Z,2.00
2018-04-27T12:38:14.720Z,2.00
2018-04-27T12:39:14.901Z,2.10
2018-04-27T12:40:15.062Z,2.20
2018-04-27T12:41:15.202Z,2.20
2018-04-27T12:42:15.349Z,1.90
2018-04-27T12:43:15.480Z,2.20
2018-04-27T12:44:15.631Z,2.10
2018-04-27T12:45:15.772Z,2.10
2018-04-27T12:46:15.917Z,1.90
2018-04-27T12:47:16.056Z,2.00
2018-04-27T12:48:16.188Z,1.90
2018-04-27T12:49:16.387Z,2.10
2018-04-27T12:50:16.525Z,2.20
2018-04-27T12:51:16.674Z,2.00
2018-04-27T12:52:16.855Z,2.30
2018-04-27T12:53:16.954Z,1.90
2018-04-27T12:54:17.146Z,2.30
2018-04-27T12:55:17.285Z,2.00
2018-04-27T12:56:17.431Z,2.60
2018-04-27T12:57:17.568Z,2.00
2018-04-27T12:58:17.746Z,2.70
2018-04-27T12:59:17.884Z,7.60
2018-04-27T13:00:18.020Z,3.70
2018-04-27T13:01:18.174Z,2.00
2018-04-27T13:02:18.401Z,1.90
2018-04-27T13:03:18.464Z,2.10
2018-04-27T13:04:18.601Z,2.00
2018-04-27T13:05:18.746Z,2.00
2018-04-27T13:06:18.990Z,1.70
2018-04-27T13:07:18.992Z,2.10
2018-04-27T13:08:19.142Z,2.10
2018-04-27T13:09:19.289Z,2.10
2018-04-27T13:10:19.449Z,1.80
2018-04-27T13:11:19.594Z,2.00
2018-04-27T13:12:19.733Z,2.00
2018-04-27T13:13:19.877Z,2.20
2018-04-27T13:14:20.049Z,2.10
2018-04-27T13:15:20.178Z,2.00
2018-04-27T13:16:20.325Z,2.00
2018-04-27T13:17:20.464Z,2.30
2018-04-27T13:18:20.612Z,2.20
2018-04-27T13:19:20.756Z,2.30
2018-04-27T13:20:20.897Z,2.10
2018-04-27T13:21:21.044Z,2.20
2018-04-27T13:22:21.204Z,2.30